Time;durP1;ratioP1;P1;durP2;ratioP2;P2;SDS_P1;SDS_P2;PMS_P1;PMS_P2;Temp;Humidity;BMP_temperature;BMP_pressure;BME280_temperature;BME280_humidity;BME280_pressure;Samples;Min_cycle;Max_cycle;Signal;HPM_P1;HPM_P2
2022/08/13 00:00:10;;;;;;;;;;;;;;;16.98;46.96;100364.78;5063456;28;978;-51
2022/08/13 00:02:39;;;;;;;;;;;;;;;17.93;48.31;100361.75;5070251;28;1001;-51
2022/08/13 00:05:05;;;;;;;;;;;;;;;17.35;48.81;100363.41;5057939;28;1390;-51
2022/08/13 00:07:30;;;;;;;;;;;;;;;17.27;48.53;100351.09;5076436;28;965;-51
2022/08/13 00:09:57;;;;;;;;;;;;;;;17.20;48.21;100347.06;5070533;28;1108;-51
2022/08/13 00:15:20;;;;;;;;;;;;;;;17.15;47.38;100341.59;5059317;28;1191;-52
2022/08/13 00:17:49;;;;;;;;;;;;;;;17.10;47.53;100346.03;5067310;28;1909;-50
2022/08/13 00:20:14;;;;;;;;;;;;;;;17.04;47.74;100341.69;5072065;28;2352;-50
2022/08/13 00:22:40;;;;;;;;;;;;;;;17.08;47.28;100339.16;5067748;28;965;-50
2022/08/13 00:25:06;;;;;;;;;;;;;;;16.95;47.79;100342.59;5069042;28;937;-50
2022/08/13 00:27:31;;;;;;;;;;;;;;;17.09;47.22;100330.63;5069397;28;841;-51
2022/08/13 00:29:57;;;;;;;;;;;;;;;17.07;47.02;100332.88;5066450;28;962;-49
2022/08/13 00:32:26;;;;;;;;;;;;;;;17.06;47.22;100331.22;5066936;28;1167;-48
2022/08/13 00:34:51;;;;;;;;;;;;;;;16.98;47.16;100331.84;5065941;28;954;-50
2022/08/13 00:37:17;;;;;;;;;;;;;;;17.11;47.46;100335.88;5074338;28;1917;-48
2022/08/13 00:39:42;;;;;;;;;;;;;;;17.70;48.82;100333.91;5072597;28;1064;-51
2022/08/13 00:42:08;;;;;;;;;;;;;;;17.34;48.88;100336.22;5069402;28;1140;-51
2022/08/13 00:44:33;;;;;;;;;;;;;;;17.26;48.28;100332.16;5071696;28;1046;-51
2022/08/13 00:49:47;;;;;;;;;;;;;;;17.60;49.47;100334.84;5067791;28;1868;-51
2022/08/13 00:52:12;;;;;;;;;;;;;;;15.06;55.79;100330.91;5057051;28;1501;-51
2022/08/13 00:54:40;;;;;;;;;;;;;;;16.52;50.08;100330.22;5062523;28;1206;-52
2022/08/13 00:57:07;;;;;;;;;;;;;;;16.80;48.93;100332.50;5067506;28;1909;-51
2022/08/13 00:59:34;;;;;;;;;;;;;;;17.88;50.08;100337.00;5069094;28;969;-52
2022/08/13 01:01:59;;;;;;;;;;;;;;;17.28;50.51;100336.25;5059433;28;930;-52
2022/08/13 01:04:25;;;;;;;;;;;;;;;17.19;49.43;100335.22;5046388;28;1318;-52
2022/08/13 01:06:50;;;;;;;;;;;;;;;17.18;48.87;100325.38;5051639;28;1117;-53
2022/08/13 01:09:16;;;;;;;;;;;;;;;17.19;48.43;100326.97;5073843;28;1032;-51
2022/08/13 01:11:41;;;;;;;;;;;;;;;17.09;48.21;100333.38;5071357;28;1357;-52
2022/08/13 01:14:07;;;;;;;;;;;;;;;17.13;47.66;100324.59;5064854;28;1049;-50
2022/08/13 01:16:36;;;;;;;;;;;;;;;17.06;47.62;100333.97;5064599;28;2065;-52
2022/08/13 01:19:06;;;;;;;;;;;;;;;17.01;47.74;100336.78;5063693;28;2278;-51
2022/08/13 01:21:50;;;;;;;;;;;;;;;17.63;48.31;100330.69;5065604;28;1001;-52
2022/08/13 01:24:15;;;;;;;;;;;;;;;17.52;49.84;100329.16;5064480;28;1020;-52
2022/08/13 01:26:41;;;;;;;;;;;;;;;17.39;49.43;100326.00;5065214;28;970;-48
2022/08/13 01:29:07;;;;;;;;;;;;;;;17.30;48.53;100327.72;5065751;28;903;-52
2022/08/13 01:31:33;;;;;;;;;;;;;;;17.24;48.18;100332.44;5072899;28;1028;-52
2022/08/13 01:34:01;;;;;;;;;;;;;;;17.27;47.79;100329.09;5071854;28;1147;-53
2022/08/13 01:36:27;;;;;;;;;;;;;;;17.24;47.62;100326.13;5073898;28;1901;-51
2022/08/13 01:38:52;;;;;;;;;;;;;;;17.14;47.80;100324.31;5071705;28;1206;-52
2022/08/13 01:41:18;;;;;;;;;;;;;;;17.07;47.62;100330.13;5059213;28;899;-51
2022/08/13 01:43:44;;;;;;;;;;;;;;;17.15;47.43;100322.38;5069108;28;1024;-53
2022/08/13 01:46:09;;;;;;;;;;;;;;;17.05;47.45;100323.28;5054470;28;1088;-53
2022/08/13 01:51:24;;;;;;;;;;;;;;;17.01;47.63;100325.78;5063438;28;1041;-52
2022/08/13 01:53:58;;;;;;;;;;;;;;;17.02;47.41;100329.34;5061743;28;1215;-49
2022/08/13 01:56:24;;;;;;;;;;;;;;;17.03;47.14;100326.31;5066257;28;1970;-53
2022/08/13 01:58:50;;;;;;;;;;;;;;;17.04;47.20;100321.63;5069763;28;961;-52
2022/08/13 02:01:15;;;;;;;;;;;;;;;17.76;48.71;100324.47;5069983;28;973;-53
2022/08/13 02:03:43;;;;;;;;;;;;;;;17.36;49.13;100321.06;5068941;28;1002;-49
2022/08/13 02:06:10;;;;;;;;;;;;;;;17.25;48.65;100320.34;5069335;28;998;-51
2022/08/13 02:08:38;;;;;;;;;;;;;;;17.15;48.25;100322.38;5062186;28;946;-52
2022/08/13 02:11:03;;;;;;;;;;;;;;;17.16;47.77;100326.75;5070213;28;1056;-53
2022/08/13 02:13:29;;;;;;;;;;;;;;;17.15;47.70;100334.16;5074125;28;1136;-52
2022/08/13 02:15:55;;;;;;;;;;;;;;;17.11;47.18;100338.63;5070010;28;957;-52
2022/08/13 02:18:21;;;;;;;;;;;;;;;17.10;47.07;100337.78;5069478;28;1981;-52
2022/08/13 02:20:48;;;;;;;;;;;;;;;17.03;47.25;100340.03;5065724;28;2383;-53
2022/08/13 02:23:19;;;;;;;;;;;;;;;17.05;46.62;100340.56;5074204;28;926;-52
2022/08/13 02:25:45;;;;;;;;;;;;;;;17.07;46.73;100323.81;5055092;28;1001;-52
2022/08/13 02:28:12;;;;;;;;;;;;;;;17.01;46.43;100341.44;5072099;28;1055;-53
2022/08/13 02:30:37;;;;;;;;;;;;;;;16.97;46.43;100340.38;5073725;28;1093;-52
2022/08/13 02:33:05;;;;;;;;;;;;;;;17.93;47.49;100342.47;5077160;28;1186;-53
2022/08/13 02:35:31;;;;;;;;;;;;;;;17.35;48.13;100340.56;5074277;28;1060;-51
2022/08/13 02:37:56;;;;;;;;;;;;;;;17.22;47.68;100336.59;5061533;28;1980;-52
2022/08/13 02:43:06;;;;;;;;;;;;;;;17.15;46.90;100334.16;5071669;28;961;-50
2022/08/13 02:45:31;;;;;;;;;;;;;;;17.03;46.77;100331.81;5066106;28;1099;-51
2022/08/13 02:47:57;;;;;;;;;;;;;;;17.03;46.70;100328.25;5065163;28;1044;-49
2022/08/13 02:50:24;;;;;;;;;;;;;;;16.96;46.74;100334.06;5065824;28;2394;-51
2022/08/13 02:52:51;;;;;;;;;;;;;;;17.00;46.36;100339.78;5070018;28;989;-50
2022/08/13 02:55:20;;;;;;;;;;;;;;;16.96;46.20;100334.06;5062480;28;997;-50
2022/08/13 02:57:48;;;;;;;;;;;;;;;16.96;46.24;100335.97;5073311;28;1963;-48
2022/08/13 03:00:14;;;;;;;;;;;;;;;16.95;46.34;100343.41;5072777;28;975;-52
2022/08/13 03:02:42;;;;;;;;;;;;;;;16.91;46.04;100332.19;5075799;28;914;-52
2022/08/13 03:05:12;;;;;;;;;;;;;;;17.19;46.58;100339.91;5068091;28;1210;-51
2022/08/13 03:07:41;;;;;;;;;;;;;;;17.49;48.68;100340.72;5059035;28;1025;-51
2022/08/13 03:10:11;;;;;;;;;;;;;;;15.03;54.52;100344.34;5070886;28;1151;-51
2022/08/13 03:12:37;;;;;;;;;;;;;;;16.41;49.10;100351.41;5070170;28;957;-52
2022/08/13 03:15:03;;;;;;;;;;;;;;;16.58;48.11;100350.22;5060872;28;1044;-51
2022/08/13 03:17:28;;;;;;;;;;;;;;;17.33;48.78;100354.59;5073126;28;1897;-52
2022/08/13 03:19:53;;;;;;;;;;;;;;;17.04;48.90;100355.44;5068832;28;2249;-51
2022/08/13 03:22:19;;;;;;;;;;;;;;;16.95;47.99;100354.38;5068772;28;993;-50
2022/08/13 03:24:45;;;;;;;;;;;;;;;17.02;48.11;100365.88;5061912;28;945;-53
2022/08/13 03:27:11;;;;;;;;;;;;;;;17.53;48.82;100358.28;5069854;28;1001;-52
2022/08/13 03:29:39;;;;;;;;;;;;;;;17.16;48.89;100348.75;5067442;28;1028;-50
2022/08/13 03:32:05;;;;;;;;;;;;;;;17.05;48.35;100359.78;5070830;28;977;-53
2022/08/13 03:34:31;;;;;;;;;;;;;;;17.09;47.72;100362.78;5077297;28;1049;-53
2022/08/13 03:36:57;;;;;;;;;;;;;;;17.08;46.92;100350.16;5062220;28;1902;-52
2022/08/13 03:39:22;;;;;;;;;;;;;;;16.95;47.11;100359.06;5076328;28;1068;-52
2022/08/13 03:41:47;;;;;;;;;;;;;;;16.95;46.68;100350.81;5068147;28;1120;-50
2022/08/13 03:44:13;;;;;;;;;;;;;;;16.95;46.45;100348.88;5071211;28;1307;-56
2022/08/13 03:46:38;;;;;;;;;;;;;;;16.97;46.57;100343.94;5059024;28;1060;-54
2022/08/13 03:49:04;;;;;;;;;;;;;;;16.86;46.50;100339.63;5070412;28;2245;-54
2022/08/13 03:51:29;;;;;;;;;;;;;;;18.10;47.50;100344.75;5072275;28;1009;-49
2022/08/13 03:53:55;;;;;;;;;;;;;;;15.03;56.72;100339.66;5059126;28;1182;-52
2022/08/13 03:56:22;;;;;;;;;;;;;;;16.11;52.16;100340.59;5073482;28;1961;-54
2022/08/13 03:58:49;;;;;;;;;;;;;;;17.20;50.40;100338.81;5071217;28;1350;-52
2022/08/13 04:01:15;;;;;;;;;;;;;;;17.23;50.50;100338.22;5066879;28;1516;-52
2022/08/13 04:03:41;;;;;;;;;;;;;;;17.03;49.64;100342.78;5038324;28;1002;-51
2022/08/13 04:06:17;;;;;;;;;;;;;;;17.02;48.89;100337.59;5065440;28;927;-52
2022/08/13 04:08:43;;;;;;;;;;;;;;;16.91;48.18;100334.09;5066213;28;1041;-55
2022/08/13 04:11:10;;;;;;;;;;;;;;;16.93;47.92;100340.94;5065277;28;1032;-56
2022/08/13 04:13:38;;;;;;;;;;;;;;;16.91;47.70;100332.19;5071050;28;973;-51
2022/08/13 04:16:06;;;;;;;;;;;;;;;16.90;47.14;100337.94;5067558;28;1159;-49
2022/08/13 04:18:35;;;;;;;;;;;;;;;17.94;48.31;100325.69;5069573;28;1988;-46
2022/08/13 04:21:01;;;;;;;;;;;;;;;17.28;49.06;100329.94;5062590;28;2553;-45
2022/08/13 04:23:28;;;;;;;;;;;;;;;17.13;48.59;100332.84;5074352;28;1001;-56
2022/08/13 04:25:54;;;;;;;;;;;;;;;17.10;48.02;100326.78;5073820;28;1123;-51
2022/08/13 04:28:21;;;;;;;;;;;;;;;17.03;47.68;100331.81;5075515;28;957;-49
2022/08/13 04:30:46;;;;;;;;;;;;;;;17.00;47.36;100331.53;5062403;28;829;-50
2022/08/13 04:33:12;;;;;;;;;;;;;;;16.92;47.02;100331.06;5069955;28;1148;-49
2022/08/13 04:35:38;;;;;;;;;;;;;;;17.02;46.81;100327.41;5058853;28;1040;-52
2022/08/13 04:38:05;;;;;;;;;;;;;;;16.87;47.03;100324.75;5064147;28;1918;-51
2022/08/13 04:40:38;;;;;;;;;;;;;;;16.96;46.89;100327.72;5071982;28;989;-53
2022/08/13 04:43:03;;;;;;;;;;;;;;;16.86;46.82;100329.44;5069507;28;1108;-55
2022/08/13 04:45:29;;;;;;;;;;;;;;;16.85;46.89;100337.97;5070619;28;973;-52
2022/08/13 04:47:58;;;;;;;;;;;;;;;18.14;47.17;100343.03;5040595;28;1138;-53
2022/08/13 04:50:24;;;;;;;;;;;;;;;17.32;48.96;100327.41;5072178;28;2575;-48
2022/08/13 04:52:54;;;;;;;;;;;;;;;17.25;48.38;100341.50;5072015;28;1028;-56
2022/08/13 04:55:19;;;;;;;;;;;;;;;17.21;48.08;100334.97;5044931;28;1224;-51
2022/08/13 04:57:45;;;;;;;;;;;;;;;17.17;48.20;100339.41;5073324;28;1969;-52
2022/08/13 05:00:12;;;;;;;;;;;;;;;18.06;48.87;100350.03;5075107;28;1024;-52
2022/08/13 05:02:38;;;;;;;;;;;;;;;17.48;49.23;100344.59;5063756;28;893;-52
2022/08/13 05:05:03;;;;;;;;;;;;;;;17.34;48.46;100339.78;5066358;28;966;-53
2022/08/13 05:07:29;;;;;;;;;;;;;;;17.30;47.99;100341.47;5062958;28;1017;-56
2022/08/13 05:09:54;;;;;;;;;;;;;;;17.23;47.46;100344.53;5059523;28;1188;-54
2022/08/13 05:12:20;;;;;;;;;;;;;;;17.20;47.31;100344.31;5068554;28;1029;-52
2022/08/13 05:14:46;;;;;;;;;;;;;;;17.21;46.92;100341.25;5061324;28;1005;-56
2022/08/13 05:17:11;;;;;;;;;;;;;;;17.15;47.09;100336.09;5059256;28;1902;-54
2022/08/13 05:19:37;;;;;;;;;;;;;;;17.92;47.82;100335.34;5070232;28;1951;-54
2022/08/13 05:22:02;;;;;;;;;;;;;;;17.39;48.42;100336.13;5069448;28;1238;-55
2022/08/13 05:24:29;;;;;;;;;;;;;;;17.34;48.05;100328.78;5075613;28;985;-57
2022/08/13 05:26:54;;;;;;;;;;;;;;;17.31;48.88;100329.34;5066236;28;953;-55
2022/08/13 05:29:20;;;;;;;;;;;;;;;17.31;48.58;100326.63;5056204;28;1040;-56
2022/08/13 05:31:46;;;;;;;;;;;;;;;17.28;48.01;100328.00;5056267;28;997;-56
2022/08/13 05:34:12;;;;;;;;;;;;;;;17.21;47.70;100318.47;5065158;28;945;-54
2022/08/13 05:36:39;;;;;;;;;;;;;;;17.25;47.25;100312.09;5064799;28;1977;-53
2022/08/13 05:39:05;;;;;;;;;;;;;;;17.15;46.98;100316.88;5059242;28;1155;-54
2022/08/13 05:41:30;;;;;;;;;;;;;;;17.18;47.01;100319.03;5072951;28;1048;-55
2022/08/13 05:43:55;;;;;;;;;;;;;;;17.15;47.05;100314.13;5074819;28;1136;-52
2022/08/13 05:46:24;;;;;;;;;;;;;;;17.47;46.79;100307.22;5072517;28;1124;-57
2022/08/13 05:48:58;;;;;;;;;;;;;;;18.54;45.22;100301.50;5076660;28;1041;-56
2022/08/13 05:51:28;;;;;;;;;;;;;;;18.24;46.34;100295.31;5073189;28;1097;-55
2022/08/13 05:53:54;;;;;;;;;;;;;;;18.07;47.08;100296.63;5076211;28;1146;-53
2022/08/13 05:56:23;;;;;;;;;;;;;;;18.00;47.62;100300.88;5075006;28;1065;-55
2022/08/13 05:58:49;;;;;;;;;;;;;;;17.92;48.34;100299.56;5069836;28;974;-56
2022/08/13 06:04:00;;;;;;;;;;;;;;;17.81;49.24;100307.13;5072204;28;997;-57
2022/08/13 06:06:25;;;;;;;;;;;;;;;17.78;49.40;100296.69;5069335;28;977;-56
2022/08/13 06:08:56;;;;;;;;;;;;;;;17.73;49.76;100303.06;5072892;28;1005;-57
2022/08/13 06:11:21;;;;;;;;;;;;;;;17.71;49.86;100304.47;5075194;28;1044;-57
2022/08/13 06:13:48;;;;;;;;;;;;;;;17.68;50.14;100305.88;5074399;28;1033;-55
2022/08/13 06:16:16;;;;;;;;;;;;;;;17.63;50.55;100303.19;5078787;28;929;-54
2022/08/13 06:18:46;;;;;;;;;;;;;;;17.60;50.69;100299.09;5064217;28;1909;-56
2022/08/13 06:21:12;;;;;;;;;;;;;;;17.56;51.06;100300.00;5074013;28;2487;-58
2022/08/13 06:23:38;;;;;;;;;;;;;;;17.53;51.22;100300.53;5058036;28;997;-56
2022/08/13 06:26:04;;;;;;;;;;;;;;;17.55;51.50;100298.34;5064675;28;1139;-53
2022/08/13 06:28:30;;;;;;;;;;;;;;;17.47;51.86;100293.47;5069821;28;970;-55
2022/08/13 06:30:58;;;;;;;;;;;;;;;17.48;51.69;100295.13;5070272;28;1450;-56
2022/08/13 06:33:24;;;;;;;;;;;;;;;17.45;52.23;100300.06;5069345;28;1070;-55
2022/08/13 06:35:51;;;;;;;;;;;;;;;17.44;52.31;100290.19;5067264;28;946;-56
2022/08/13 06:38:17;;;;;;;;;;;;;;;17.41;52.54;100295.47;5070811;28;1980;-52
2022/08/13 06:40:42;;;;;;;;;;;;;;;17.41;52.51;100285.28;5073239;28;1067;-58
2022/08/13 06:43:07;;;;;;;;;;;;;;;17.40;52.92;100296.56;5069851;28;863;-55
2022/08/13 06:45:33;;;;;;;;;;;;;;;17.39;53.09;100287.50;5057043;28;1053;-57
2022/08/13 06:47:59;;;;;;;;;;;;;;;17.33;53.14;100288.66;5074543;28;1067;-55
2022/08/13 06:50:24;;;;;;;;;;;;;;;17.31;53.33;100296.38;5065113;28;2519;-56
2022/08/13 06:52:50;;;;;;;;;;;;;;;17.33;53.34;100298.84;5070863;28;1116;-55
2022/08/13 06:55:15;;;;;;;;;;;;;;;17.29;53.51;100287.59;5066104;28;1000;-55
2022/08/13 06:57:41;;;;;;;;;;;;;;;17.30;53.41;100293.94;5072279;28;1902;-57
2022/08/13 07:00:10;;;;;;;;;;;;;;;17.29;53.59;100293.09;5067478;28;1040;-54
2022/08/13 07:02:36;;;;;;;;;;;;;;;17.27;53.69;100289.81;5073489;28;1012;-56
2022/08/13 07:05:02;;;;;;;;;;;;;;;17.26;53.75;100289.03;5065066;28;1131;-55
2022/08/13 07:07:27;;;;;;;;;;;;;;;17.27;53.63;100295.31;5068583;28;954;-53
2022/08/13 07:09:53;;;;;;;;;;;;;;;17.27;53.96;100295.31;5073266;28;1116;-57
2022/08/13 07:12:18;;;;;;;;;;;;;;;17.27;54.14;100298.06;5058463;28;982;-55
2022/08/13 07:14:44;;;;;;;;;;;;;;;17.23;53.90;100283.28;5068276;28;1312;-55
2022/08/13 07:17:10;;;;;;;;;;;;;;;17.21;54.14;100288.25;5071439;28;1906;-58
2022/08/13 07:19:37;;;;;;;;;;;;;;;17.19;54.27;100284.97;5066071;28;2465;-56
2022/08/13 07:22:03;;;;;;;;;;;;;;;17.15;54.18;100278.41;5066610;28;1056;-52
2022/08/13 07:24:28;;;;;;;;;;;;;;;17.17;54.29;100273.47;5071908;28;1008;-55
2022/08/13 07:26:59;;;;;;;;;;;;;;;17.19;54.08;100283.03;5043642;28;1096;-55
2022/08/13 07:29:26;;;;;;;;;;;;;;;17.20;54.28;100279.16;5051441;28;1229;-55
2022/08/13 07:31:54;;;;;;;;;;;;;;;17.15;54.20;100281.16;5062291;28;938;-55
2022/08/13 07:34:19;;;;;;;;;;;;;;;17.21;54.21;100271.78;5074539;28;1123;-53
2022/08/13 07:36:45;;;;;;;;;;;;;;;17.18;54.30;100280.56;5060994;28;1979;-56
2022/08/13 07:39:11;;;;;;;;;;;;;;;17.15;54.53;100275.66;5073871;28;1337;-49
2022/08/13 07:41:45;;;;;;;;;;;;;;;17.13;54.61;100275.94;5061603;28;962;-55
2022/08/13 07:44:20;;;;;;;;;;;;;;;17.10;54.66;100268.28;5074665;28;927;-54
2022/08/13 07:46:45;;;;;;;;;;;;;;;17.15;54.61;100273.72;5064214;28;1041;-51
2022/08/13 07:49:12;;;;;;;;;;;;;;;17.06;54.71;100273.53;5076396;28;2466;-51
2022/08/13 07:51:37;;;;;;;;;;;;;;;17.06;54.41;100268.03;5070750;28;1004;-51
2022/08/13 07:54:05;;;;;;;;;;;;;;;17.07;54.71;100269.69;5070345;28;1012;-54
2022/08/13 07:56:31;;;;;;;;;;;;;;;17.09;54.73;100270.19;5066157;28;1882;-54
2022/08/13 07:59:00;;;;;;;;;;;;;;;17.04;54.58;100264.78;5071497;28;1032;-53
2022/08/13 08:01:27;;;;;;;;;;;;;;;17.07;54.54;100272.44;5069497;28;996;-52
2022/08/13 08:03:54;;;;;;;;;;;;;;;17.05;54.54;100263.66;5067430;28;985;-54
2022/08/13 08:06:20;;;;;;;;;;;;;;;17.03;54.65;100260.38;5051688;28;1101;-56
2022/08/13 08:08:45;;;;;;;;;;;;;;;17.05;54.71;100265.59;5075314;28;981;-57
2022/08/13 08:12:30;;;;;;;;;;;;;;;17.04;54.76;100264.78;5057202;28;1153;-56
2022/08/13 08:13:59;;;;;;;;;;;;;;;17.02;54.57;100256.00;5068638;28;1875;-57
2022/08/13 08:16:28;;;;;;;;;;;;;;;17.03;54.69;100243.91;5061025;28;1083;-54
2022/08/13 08:18:53;;;;;;;;;;;;;;;17.05;54.87;100243.59;5068720;28;1846;-55
2022/08/13 08:21:20;;;;;;;;;;;;;;;17.02;54.75;100241.44;5059354;28;1012;-53
2022/08/13 08:23:46;;;;;;;;;;;;;;;17.02;54.98;100244.19;5067516;28;1155;-55
2022/08/13 08:26:12;;;;;;;;;;;;;;;17.00;55.03;100249.13;5072760;28;1036;-56
2022/08/13 08:28:37;;;;;;;;;;;;;;;17.01;54.79;100240.63;5052605;28;1163;-51
2022/08/13 08:31:06;;;;;;;;;;;;;;;17.01;54.83;100240.63;5074031;28;1072;-55
2022/08/13 08:33:33;;;;;;;;;;;;;;;16.99;55.02;100240.09;5052634;28;1148;-55
2022/08/13 08:35:58;;;;;;;;;;;;;;;16.99;55.00;100240.09;5063737;28;1025;-54
2022/08/13 08:43:51;;;;;;;;;;;;;;;16.96;55.04;100223.38;5045725;28;1009;-55
2022/08/13 08:46:17;;;;;;;;;;;;;;;17.01;54.97;100224.16;5055341;28;1140;-54
2022/08/13 08:48:42;;;;;;;;;;;;;;;17.00;55.07;100225.25;5070012;28;973;-55
2022/08/13 08:51:08;;;;;;;;;;;;;;;17.01;54.77;100218.66;5065495;28;2519;-56
2022/08/13 08:53:33;;;;;;;;;;;;;;;16.97;55.23;100212.13;5065227;28;1063;-55
2022/08/13 08:55:59;;;;;;;;;;;;;;;16.94;54.92;100215.41;5058846;28;1278;-52
2022/08/13 08:58:25;;;;;;;;;;;;;;;16.96;54.87;100204.13;5043168;28;1989;-56
2022/08/13 09:00:53;;;;;;;;;;;;;;;16.95;55.32;100205.28;5065586;28;962;-56
2022/08/13 09:03:19;;;;;;;;;;;;;;;16.93;55.20;100197.31;5071178;28;1198;-57
2022/08/13 09:05:48;;;;;;;;;;;;;;;16.96;54.98;100194.00;5072166;28;1270;-55
2022/08/13 09:08:15;;;;;;;;;;;;;;;16.95;55.02;100186.03;5062875;28;978;-55
2022/08/13 09:10:42;;;;;;;;;;;;;;;16.90;55.00;100193.22;5056342;28;1087;-51
2022/08/13 09:13:07;;;;;;;;;;;;;;;16.91;55.20;100183.88;5063503;28;982;-53
2022/08/13 09:15:39;;;;;;;;;;;;;;;16.94;54.95;100187.94;5045467;28;1088;-56
2022/08/13 09:18:05;;;;;;;;;;;;;;;16.95;54.89;100189.59;5065442;28;1910;-49
2022/08/13 09:20:33;;;;;;;;;;;;;;;16.92;55.15;100180.00;5062601;28;2492;-51
2022/08/13 09:23:12;;;;;;;;;;;;;;;16.92;55.06;100177.25;5072440;28;1107;-55
2022/08/13 09:25:41;;;;;;;;;;;;;;;16.89;55.27;100169.59;5060076;28;950;-48
2022/08/13 09:28:08;;;;;;;;;;;;;;;16.91;54.96;100161.06;5073787;28;1095;-54
2022/08/13 09:30:33;;;;;;;;;;;;;;;16.90;55.16;100160.28;5058672;28;1104;-55
2022/08/13 09:32:59;;;;;;;;;;;;;;;16.94;55.13;100160.50;5066764;28;946;-50
2022/08/13 09:35:25;;;;;;;;;;;;;;;16.93;55.00;100165.19;5066251;28;1020;-54
2022/08/13 09:37:56;;;;;;;;;;;;;;;16.90;55.15;100167.66;5066958;28;1898;-52
2022/08/13 09:40:26;;;;;;;;;;;;;;;16.91;55.19;100163.81;5051327;28;993;-57
2022/08/13 09:43:02;;;;;;;;;;;;;;;16.89;55.29;100163.31;5055883;28;1226;-55
2022/08/13 09:45:28;;;;;;;;;;;;;;;16.89;55.23;100153.13;5060788;28;984;-53
2022/08/13 09:47:54;;;;;;;;;;;;;;;16.91;55.19;100141.84;5066057;28;977;-54
2022/08/13 09:50:21;;;;;;;;;;;;;;;16.89;55.12;100155.88;5067991;28;2515;-54
2022/08/13 09:52:47;;;;;;;;;;;;;;;16.89;55.23;100152.31;5069326;28;950;-54
2022/08/13 09:55:13;;;;;;;;;;;;;;;16.88;55.09;100153.41;5059734;28;1273;-56
2022/08/13 09:57:48;;;;;;;;;;;;;;;16.91;55.19;100150.09;5060597;28;1909;-55
2022/08/13 10:00:16;;;;;;;;;;;;;;;16.91;55.08;100152.84;5042631;28;1084;-54
2022/08/13 10:02:44;;;;;;;;;;;;;;;16.88;55.23;100143.25;5073882;28;997;-54
2022/08/13 10:05:10;;;;;;;;;;;;;;;16.88;55.19;100139.66;5068546;28;1183;-53
2022/08/13 10:07:39;;;;;;;;;;;;;;;16.87;55.22;100138.84;5060176;28;1009;-49
2022/08/13 10:10:05;;;;;;;;;;;;;;;16.86;55.12;100136.41;5063601;28;1024;-51
2022/08/13 10:12:31;;;;;;;;;;;;;;;16.87;55.00;100135.28;5059504;28;1296;-55
2022/08/13 10:14:56;;;;;;;;;;;;;;;16.91;55.28;100144.59;5055075;28;1238;-56
2022/08/13 10:17:21;;;;;;;;;;;;;;;16.89;55.07;100138.59;5061832;28;1910;-55
2022/08/13 10:19:47;;;;;;;;;;;;;;;16.87;55.31;100130.63;5058084;28;2488;-53
2022/08/13 10:22:13;;;;;;;;;;;;;;;16.84;55.21;100130.38;5070258;28;1144;-54
2022/08/13 10:24:38;;;;;;;;;;;;;;;16.86;55.08;100126.22;5073409;28;1037;-56
2022/08/13 10:27:04;;;;;;;;;;;;;;;16.87;55.17;100127.03;5070884;28;1163;-55
2022/08/13 10:29:29;;;;;;;;;;;;;;;16.86;55.17;100136.41;5068735;28;1006;-56
2022/08/13 10:31:55;;;;;;;;;;;;;;;16.84;55.43;100133.91;5069270;28;1020;-55
2022/08/13 10:34:22;;;;;;;;;;;;;;;16.86;55.19;100137.22;5072117;28;949;-55
2022/08/13 10:36:49;;;;;;;;;;;;;;;16.84;55.39;100128.44;5067821;28;1949;-54
2022/08/13 10:39:14;;;;;;;;;;;;;;;16.88;55.26;100134.16;5070066;28;1548;-53
2022/08/13 10:41:42;;;;;;;;;;;;;;;16.86;55.20;100108.94;5072039;28;1076;-53
2022/08/13 10:44:08;;;;;;;;;;;;;;;16.89;55.49;100111.13;5069338;28;957;-54
2022/08/13 10:46:33;;;;;;;;;;;;;;;16.90;55.27;100110.00;5069153;28;1005;-57
2022/08/13 10:48:59;;;;;;;;;;;;;;;16.87;55.62;100125.13;5069731;28;2280;-54
2022/08/13 10:51:27;;;;;;;;;;;;;;;16.88;55.53;100117.69;5070299;28;934;-55
2022/08/13 10:53:56;;;;;;;;;;;;;;;16.88;55.59;100125.94;5063889;28;1435;-55
2022/08/13 10:56:22;;;;;;;;;;;;;;;16.87;55.67;100129.78;5070084;28;1045;-54
2022/08/13 10:58:47;;;;;;;;;;;;;;;16.89;55.46;100125.66;5066447;28;1917;-55
2022/08/13 11:01:13;;;;;;;;;;;;;;;16.87;55.69;100125.13;5063053;28;1428;-56
2022/08/13 11:03:38;;;;;;;;;;;;;;;16.85;55.77;100104.56;5058905;28;961;-55
2022/08/13 11:06:05;;;;;;;;;;;;;;;16.88;55.78;100102.06;5069987;28;1122;-54
2022/08/13 11:08:50;;;;;;;;;;;;;;;16.89;55.84;100106.44;5064210;28;1172;-49
2022/08/13 11:11:16;;;;;;;;;;;;;;;16.86;55.66;100112.50;5072811;28;993;-54
2022/08/13 11:13:42;;;;;;;;;;;;;;;16.90;55.87;100104.50;5063168;28;1064;-54
2022/08/13 11:16:56;;;;;;;;;;;;;;;16.85;55.61;100102.63;5066960;28;1076;-54
2022/08/13 11:18:56;;;;;;;;;;;;;;;16.89;55.55;100103.69;5050558;28;2380;-52
2022/08/13 11:21:22;;;;;;;;;;;;;;;16.88;55.77;100096.56;5062889;28;925;-46
2022/08/13 11:23:48;;;;;;;;;;;;;;;16.87;55.69;100105.91;5075027;28;1219;-51
2022/08/13 11:26:13;;;;;;;;;;;;;;;16.94;55.60;100094.56;5066998;28;970;-51
2022/08/13 11:28:39;;;;;;;;;;;;;;;16.94;55.55;100097.31;5065032;28;1057;-50
2022/08/13 11:31:04;;;;;;;;;;;;;;;16.82;55.91;100100.47;5065950;28;1136;-55
2022/08/13 11:33:30;;;;;;;;;;;;;;;16.91;55.62;100095.16;5062852;28;1009;-55
2022/08/13 11:35:56;;;;;;;;;;;;;;;16.89;55.67;100098.22;5070207;28;1131;-55
2022/08/13 11:38:21;;;;;;;;;;;;;;;16.84;55.89;100100.16;5073242;28;2225;-56
2022/08/13 11:40:48;;;;;;;;;;;;;;;16.86;55.77;100098.78;5070620;28;1206;-54
2022/08/13 11:43:13;;;;;;;;;;;;;;;16.86;55.76;100098.78;5075301;28;1084;-54
2022/08/13 11:45:39;;;;;;;;;;;;;;;16.85;55.85;100096.31;5068525;28;900;-52
2022/08/13 11:48:08;;;;;;;;;;;;;;;16.83;55.83;100093.03;5069645;28;1160;-55
2022/08/13 11:50:33;;;;;;;;;;;;;;;16.86;55.95;100092.47;5074025;28;2539;-54
2022/08/13 11:52:58;;;;;;;;;;;;;;;16.87;55.81;100094.09;5072857;28;1155;-54
2022/08/13 11:55:24;;;;;;;;;;;;;;;16.86;56.03;100086.97;5072076;28;1246;-54
2022/08/13 11:58:02;;;;;;;;;;;;;;;16.86;55.83;100095.22;5064730;28;1913;-53
2022/08/13 12:00:28;;;;;;;;;;;;;;;16.84;55.89;100094.69;5062604;28;1345;-52
2022/08/13 12:02:53;;;;;;;;;;;;;;;16.82;55.91;100085.94;5060027;28;1021;-52
2022/08/13 12:05:19;;;;;;;;;;;;;;;16.83;55.85;100076.56;5059640;28;1029;-52
2022/08/13 12:07:44;;;;;;;;;;;;;;;16.84;55.76;100083.69;5071956;28;1076;-52
2022/08/13 12:10:10;;;;;;;;;;;;;;;16.81;55.85;100082.34;5061532;28;1140;-53
2022/08/13 12:12:36;;;;;;;;;;;;;;;16.82;56.03;100083.19;5068316;28;1072;-52
2022/08/13 12:15:01;;;;;;;;;;;;;;;16.81;55.99;100090.59;5071753;28;1190;-53
2022/08/13 12:17:29;;;;;;;;;;;;;;;16.83;55.79;100093.88;5074915;28;1906;-54
2022/08/13 12:19:55;;;;;;;;;;;;;;;16.82;55.83;100092.22;5074394;28;2577;-53
2022/08/13 12:22:20;;;;;;;;;;;;;;;16.81;55.92;100090.59;5069448;28;899;-52
2022/08/13 12:24:46;;;;;;;;;;;;;;;16.84;55.58;100083.69;5070086;28;1005;-52
2022/08/13 12:27:11;;;;;;;;;;;;;;;16.84;55.71;100086.44;5065515;28;1068;-50
2022/08/13 12:29:37;;;;;;;;;;;;;;;16.80;55.72;100082.63;5071372;28;989;-54
2022/08/13 12:32:02;;;;;;;;;;;;;;;16.78;55.95;100091.16;5050992;28;1103;-51
2022/08/13 12:34:28;;;;;;;;;;;;;;;16.77;55.68;100095.84;5068974;28;867;-53
2022/08/13 12:36:53;;;;;;;;;;;;;;;16.77;55.93;100090.38;5072446;28;1980;-52
2022/08/13 12:39:19;;;;;;;;;;;;;;;16.76;55.87;100098.91;5072875;28;1055;-53
2022/08/13 12:41:44;;;;;;;;;;;;;;;16.79;55.86;100098.31;5070192;28;1048;-52
2022/08/13 12:44:10;;;;;;;;;;;;;;;16.82;55.72;100091.41;5072865;28;1128;-52
2022/08/13 12:46:35;;;;;;;;;;;;;;;16.77;55.87;100087.63;5061731;28;986;-52
2022/08/13 12:49:04;;;;;;;;;;;;;;;16.76;55.75;100087.91;5071983;28;1867;-52
2022/08/13 12:51:29;;;;;;;;;;;;;;;16.77;55.76;100082.13;5061139;28;1242;-52
2022/08/13 12:53:55;;;;;;;;;;;;;;;16.77;55.75;100084.88;5075349;28;1224;-52
2022/08/13 12:56:20;;;;;;;;;;;;;;;16.75;55.85;100081.59;5072309;28;1171;-54
2022/08/13 12:58:46;;;;;;;;;;;;;;;16.79;55.88;100076.34;5059825;28;1977;-52
2022/08/13 13:01:11;;;;;;;;;;;;;;;16.79;55.85;100075.50;5064743;28;1089;-52
2022/08/13 13:03:37;;;;;;;;;;;;;;;16.79;56.08;100078.25;5067785;28;1084;-53
2022/08/13 13:06:02;;;;;;;;;;;;;;;16.76;55.94;100083.22;5072017;28;1171;-53